Time;durP1;ratioP1;P1;durP2;ratioP2;P2;SDS_P1;SDS_P2;PMS_P1;PMS_P2;Temp;Humidity;BMP_temperature;BMP_pressure;BME280_temperature;BME280_humidity;BME280_pressure;Samples;Min_cycle;Max_cycle;Signal;HPM_P1;HPM_P2
2022/08/02 00:00:14;;;;;;;3.57;2.30;;;;;;;;;;4941690;28;20930;-36
2022/08/02 00:02:41;;;;;;;3.70;2.13;;;;;;;;;;4941085;28;20665;-36
2022/08/02 00:05:08;;;;;;;3.20;2.10;;;;;;;;;;4943955;28;20904;-37
2022/08/02 00:07:34;;;;;;;5.03;2.70;;;;;;;;;;4942323;28;20603;-36
2022/08/02 00:10:00;;;;;;;4.57;2.17;;;;;;;;;;4944012;28;20585;-37
2022/08/02 00:12:26;;;;;;;3.37;2.13;;;;;;;;;;4946544;28;20385;-36
2022/08/02 00:14:53;;;;;;;4.27;2.23;;;;;;;;;;4943376;28;20205;-37
2022/08/02 00:17:19;;;;;;;4.07;2.03;;;;;;;;;;4945190;28;20758;-37
2022/08/02 00:20:11;;;;;;;4.50;2.20;;;;;;;;;;4946503;28;20713;-36
2022/08/02 00:22:34;;;;;;;4.33;2.13;;;;;;;;;;4943317;28;20508;-36
2022/08/02 00:25:00;;;;;;;3.47;2.13;;;;;;;;;;4943219;28;20196;-36
2022/08/02 00:27:26;;;;;;;2.70;2.00;;;;;;;;;;4948914;28;20185;-36
2022/08/02 00:29:54;;;;;;;5.67;2.27;;;;;;;;;;4945726;28;20506;-36
2022/08/02 00:32:20;;;;;;;4.10;2.10;;;;;;;;;;4946864;28;20182;-37
2022/08/02 00:34:46;;;;;;;4.00;2.53;;;;;;;;;;4944963;28;20623;-37
2022/08/02 00:37:12;;;;;;;8.07;3.70;;;;;;;;;;4943216;28;20599;-37
2022/08/02 00:39:38;;;;;;;8.67;3.70;;;;;;;;;;4940460;28;20209;-37
2022/08/02 00:42:04;;;;;;;8.13;3.77;;;;;;;;;;4946072;28;20186;-37
2022/08/02 00:44:31;;;;;;;5.63;3.90;;;;;;;;;;4945053;28;20174;-38
2022/08/02 00:46:57;;;;;;;8.10;3.50;;;;;;;;;;4943723;28;20183;-37
2022/08/02 00:49:23;;;;;;;11.03;3.80;;;;;;;;;;4946880;28;20500;-37
2022/08/02 00:51:49;;;;;;;8.30;3.80;;;;;;;;;;4946679;28;20182;-37
2022/08/02 00:54:15;;;;;;;6.80;3.50;;;;;;;;;;4944966;28;20562;-36
2022/08/02 00:56:41;;;;;;;6.67;3.67;;;;;;;;;;4947511;28;20602;-37
2022/08/02 00:59:07;;;;;;;4.97;3.10;;;;;;;;;;4947622;28;20246;-38
2022/08/02 01:01:40;;;;;;;8.43;3.20;;;;;;;;;;4946756;28;20209;-37
2022/08/02 01:04:08;;;;;;;5.70;2.60;;;;;;;;;;4945267;28;20187;-37
2022/08/02 01:06:34;;;;;;;5.73;2.50;;;;;;;;;;4948006;28;20220;-37
2022/08/02 01:09:01;;;;;;;7.73;2.90;;;;;;;;;;4945330;28;20330;-37
2022/08/02 01:11:28;;;;;;;5.43;2.50;;;;;;;;;;4945220;28;20190;-37
2022/08/02 01:14:03;;;;;;;6.70;3.03;;;;;;;;;;4949741;28;20237;-37
2022/08/02 01:16:31;;;;;;;5.87;2.70;;;;;;;;;;4942781;28;21171;-36
2022/08/02 01:19:02;;;;;;;5.43;2.60;;;;;;;;;;4941489;28;20250;-37
2022/08/02 01:21:46;;;;;;;5.53;2.63;;;;;;;;;;4945365;28;20296;-37
2022/08/02 01:24:18;;;;;;;8.97;2.80;;;;;;;;;;4956161;28;20193;-36
2022/08/02 01:26:44;;;;;;;6.87;2.87;;;;;;;;;;4946924;28;20309;-37
2022/08/02 01:29:37;;;;;;;5.77;3.10;;;;;;;;;;4947125;28;20179;-37
2022/08/02 01:32:05;;;;;;;8.53;3.43;;;;;;;;;;4945921;28;20962;-37
2022/08/02 01:34:50;;;;;;;7.50;3.50;;;;;;;;;;4947691;28;20352;-37
2022/08/02 01:37:19;;;;;;;6.93;3.60;;;;;;;;;;4947563;28;20224;-37
2022/08/02 01:39:48;;;;;;;6.73;3.20;;;;;;;;;;4943952;28;20206;-37
2022/08/02 01:42:15;;;;;;;4.60;2.90;;;;;;;;;;4947916;28;20276;-37
2022/08/02 01:44:43;;;;;;;3.33;2.70;;;;;;;;;;4943185;28;20297;-37
2022/08/02 01:47:18;;;;;;;8.00;2.80;;;;;;;;;;4946907;28;21232;-37
2022/08/02 01:49:50;;;;;;;5.10;3.70;;;;;;;;;;4947648;28;20721;-37
2022/08/02 01:52:23;;;;;;;6.73;3.53;;;;;;;;;;4946314;28;20182;-37
2022/08/02 01:55:10;;;;;;;6.50;3.20;;;;;;;;;;4948704;28;20408;-37
2022/08/02 01:57:41;;;;;;;4.73;3.70;;;;;;;;;;4944280;28;20555;-37
2022/08/02 02:00:09;;;;;;;6.43;4.07;;;;;;;;;;4946375;28;20202;-37
2022/08/02 02:02:36;;;;;;;8.00;3.77;;;;;;;;;;4944371;28;20194;-37
2022/08/02 02:05:03;;;;;;;5.17;3.83;;;;;;;;;;4946637;28;20194;-36
2022/08/02 02:07:31;;;;;;;6.20;4.00;;;;;;;;;;4945373;28;20228;-37
2022/08/02 02:09:58;;;;;;;5.43;4.50;;;;;;;;;;4947390;28;20201;-37
2022/08/02 02:12:24;;;;;;;6.33;4.70;;;;;;;;;;4946978;28;20257;-36
2022/08/02 02:14:50;;;;;;;6.47;4.40;;;;;;;;;;4947399;28;20186;-37
2022/08/02 02:17:18;;;;;;;9.30;4.57;;;;;;;;;;4946222;28;20186;-37
2022/08/02 02:19:44;;;;;;;5.07;3.83;;;;;;;;;;4946695;28;20286;-37
2022/08/02 02:22:10;;;;;;;5.30;4.10;;;;;;;;;;4945757;28;20551;-37
2022/08/02 02:24:36;;;;;;;5.03;4.33;;;;;;;;;;4945380;28;20683;-37
2022/08/02 02:27:03;;;;;;;5.43;4.27;;;;;;;;;;4947378;28;20582;-36
2022/08/02 02:29:30;;;;;;;6.33;4.47;;;;;;;;;;4947497;28;20574;-38
2022/08/02 02:31:57;;;;;;;6.23;4.63;;;;;;;;;;4947598;28;20500;-37
2022/08/02 02:34:33;;;;;;;6.57;4.53;;;;;;;;;;4959655;28;20186;-36
2022/08/02 02:37:01;;;;;;;6.47;3.93;;;;;;;;;;4940985;28;20234;-37
2022/08/02 02:39:27;;;;;;;4.37;3.77;;;;;;;;;;4947109;28;20204;-37
2022/08/02 02:41:55;;;;;;;6.70;4.40;;;;;;;;;;4942852;28;20264;-37
2022/08/02 02:44:22;;;;;;;7.37;4.27;;;;;;;;;;4941867;28;20704;-37
2022/08/02 02:46:52;;;;;;;6.90;4.70;;;;;;;;;;4943532;28;20212;-37
2022/08/02 02:49:18;;;;;;;7.80;4.20;;;;;;;;;;4948070;28;20208;-36
2022/08/02 02:51:45;;;;;;;6.37;4.43;;;;;;;;;;4946890;28;21155;-37
2022/08/02 02:54:12;;;;;;;9.40;5.03;;;;;;;;;;4946477;28;20178;-36
2022/08/02 02:56:38;;;;;;;9.87;5.03;;;;;;;;;;4976836;28;21236;-37
2022/08/02 02:59:05;;;;;;;7.17;4.63;;;;;;;;;;4945864;28;20230;-36
2022/08/02 03:01:31;;;;;;;6.83;4.93;;;;;;;;;;4944770;28;20174;-37
2022/08/02 03:03:59;;;;;;;9.67;5.10;;;;;;;;;;4946837;28;20217;-37
2022/08/02 03:06:26;;;;;;;7.80;4.27;;;;;;;;;;4944418;28;20174;-37
2022/08/02 03:08:52;;;;;;;7.53;4.00;;;;;;;;;;4942002;28;20178;-37
2022/08/02 03:11:18;;;;;;;5.80;4.70;;;;;;;;;;4943894;28;20178;-37
2022/08/02 03:13:45;;;;;;;6.77;5.63;;;;;;;;;;4946554;28;20330;-37
2022/08/02 03:16:11;;;;;;;6.47;4.83;;;;;;;;;;4946168;28;20639;-37
2022/08/02 03:18:42;;;;;;;7.63;4.70;;;;;;;;;;4944399;28;20428;-37
2022/08/02 03:21:13;;;;;;;8.73;4.73;;;;;;;;;;4947013;28;20166;-37
2022/08/02 03:23:40;;;;;;;7.13;4.70;;;;;;;;;;4960303;28;20758;-37
2022/08/02 03:26:07;;;;;;;5.10;3.80;;;;;;;;;;4942605;28;20182;-36
2022/08/02 03:28:33;;;;;;;6.17;3.77;;;;;;;;;;4946664;28;20224;-36
2022/08/02 03:31:00;;;;;;;6.53;3.67;;;;;;;;;;4948991;28;20392;-37
2022/08/02 03:33:27;;;;;;;5.67;4.13;;;;;;;;;;4945839;28;20729;-37
2022/08/02 03:35:54;;;;;;;5.53;4.00;;;;;;;;;;4948672;28;20179;-36
2022/08/02 03:38:22;;;;;;;4.73;3.73;;;;;;;;;;4946900;28;20501;-37
2022/08/02 03:40:49;;;;;;;5.47;4.13;;;;;;;;;;4941859;28;20621;-37
2022/08/02 03:43:15;;;;;;;7.30;5.00;;;;;;;;;;4945886;28;21017;-37
2022/08/02 03:45:43;;;;;;;7.00;5.00;;;;;;;;;;4950517;28;20241;-37
2022/08/02 03:48:11;;;;;;;5.53;3.90;;;;;;;;;;4943969;28;20178;-37
2022/08/02 03:50:37;;;;;;;6.63;4.20;;;;;;;;;;4943764;28;20626;-37
2022/08/02 03:53:04;;;;;;;4.87;3.87;;;;;;;;;;4947680;28;20408;-37
2022/08/02 03:55:30;;;;;;;7.03;3.90;;;;;;;;;;4945432;28;20651;-37
2022/08/02 03:57:56;;;;;;;7.20;3.40;;;;;;;;;;4941401;28;20178;-37
2022/08/02 04:00:23;;;;;;;7.87;2.90;;;;;;;;;;4946610;28;20434;-36
2022/08/02 04:02:49;;;;;;;5.10;2.73;;;;;;;;;;4946046;28;20178;-37
2022/08/02 04:05:15;;;;;;;4.93;2.70;;;;;;;;;;4944220;28;20175;-37
2022/08/02 04:07:42;;;;;;;8.77;2.70;;;;;;;;;;4945595;28;21818;-37
2022/08/02 04:10:08;;;;;;;11.20;2.50;;;;;;;;;;4947258;28;20275;-37
2022/08/02 04:12:35;;;;;;;5.63;2.43;;;;;;;;;;4941802;28;20186;-37
2022/08/02 04:15:01;;;;;;;5.93;2.70;;;;;;;;;;4945999;28;21153;-37
2022/08/02 04:17:29;;;;;;;13.00;2.93;;;;;;;;;;4945632;28;20221;-37
2022/08/02 04:19:58;;;;;;;8.13;2.73;;;;;;;;;;4941495;28;20202;-37
2022/08/02 04:22:34;;;;;;;8.70;2.80;;;;;;;;;;4945195;28;20545;-37
2022/08/02 04:25:03;;;;;;;14.03;2.60;;;;;;;;;;4942965;28;20304;-37
2022/08/02 04:27:30;;;;;;;11.10;2.80;;;;;;;;;;4944106;28;20245;-37
2022/08/02 04:29:57;;;;;;;9.07;2.23;;;;;;;;;;4945278;28;20178;-37
2022/08/02 04:32:24;;;;;;;7.43;2.13;;;;;;;;;;4942407;28;20729;-37
2022/08/02 04:34:50;;;;;;;5.67;1.97;;;;;;;;;;4943920;28;20375;-37
2022/08/02 04:37:16;;;;;;;8.53;2.57;;;;;;;;;;4942900;28;20308;-37
2022/08/02 04:39:43;;;;;;;16.10;2.80;;;;;;;;;;4943092;28;20202;-37
2022/08/02 04:42:09;;;;;;;17.77;2.90;;;;;;;;;;4943220;28;20174;-37
2022/08/02 04:44:35;;;;;;;16.00;3.00;;;;;;;;;;4943982;28;20646;-36
2022/08/02 04:47:04;;;;;;;12.27;2.53;;;;;;;;;;4942699;28;20448;-37
2022/08/02 04:49:30;;;;;;;11.20;2.47;;;;;;;;;;4941966;28;20658;-36
2022/08/02 04:51:56;;;;;;;10.23;2.40;;;;;;;;;;4944812;28;20216;-36
2022/08/02 04:54:24;;;;;;;5.13;1.83;;;;;;;;;;4940693;28;20290;-36
2022/08/02 04:56:50;;;;;;;8.20;2.20;;;;;;;;;;4942783;28;20185;-36
2022/08/02 04:59:17;;;;;;;6.37;2.23;;;;;;;;;;4944002;28;21083;-36
2022/08/02 05:01:43;;;;;;;7.30;2.27;;;;;;;;;;4947385;28;20232;-37
2022/08/02 05:04:09;;;;;;;12.87;2.40;;;;;;;;;;4948034;28;20182;-36
2022/08/02 05:06:35;;;;;;;12.93;2.33;;;;;;;;;;4950425;28;21042;-36
2022/08/02 05:09:01;;;;;;;12.57;2.50;;;;;;;;;;4950398;28;20236;-36
2022/08/02 05:11:27;;;;;;;8.23;2.50;;;;;;;;;;4946274;28;21123;-36
2022/08/02 05:13:53;;;;;;;7.00;2.33;;;;;;;;;;4945247;28;20198;-37
2022/08/02 05:16:20;;;;;;;10.20;2.47;;;;;;;;;;4945790;28;20178;-36
2022/08/02 05:18:46;;;;;;;9.53;2.23;;;;;;;;;;4950010;28;20509;-36
2022/08/02 05:21:12;;;;;;;8.03;2.23;;;;;;;;;;4948747;28;20935;-38
2022/08/02 05:23:39;;;;;;;7.03;1.97;;;;;;;;;;4948532;28;20174;-36
2022/08/02 05:26:05;;;;;;;7.87;2.27;;;;;;;;;;4946528;28;20185;-36
2022/08/02 05:28:31;;;;;;;8.67;2.20;;;;;;;;;;4946087;28;20178;-36
2022/08/02 05:30:57;;;;;;;8.00;2.10;;;;;;;;;;4948196;28;20295;-36
2022/08/02 05:33:23;;;;;;;11.53;2.47;;;;;;;;;;4953782;28;20182;-36
2022/08/02 05:35:49;;;;;;;14.07;2.10;;;;;;;;;;4947716;28;20647;-36
2022/08/02 05:38:15;;;;;;;8.60;2.30;;;;;;;;;;4947831;28;20201;-36
2022/08/02 05:40:41;;;;;;;7.23;2.30;;;;;;;;;;4947164;28;20477;-36
2022/08/02 05:43:11;;;;;;;9.07;2.50;;;;;;;;;;4945837;28;20182;-37
2022/08/02 05:45:38;;;;;;;4.90;1.87;;;;;;;;;;4975371;28;21084;-36
2022/08/02 05:48:04;;;;;;;7.87;2.20;;;;;;;;;;4947984;28;20843;-36
2022/08/02 05:50:31;;;;;;;9.90;2.30;;;;;;;;;;4946672;28;20480;-36
2022/08/02 05:53:17;;;;;;;8.37;2.23;;;;;;;;;;4946297;28;20431;-36
2022/08/02 05:55:56;;;;;;;15.00;2.63;;;;;;;;;;4947781;28;20281;-37
2022/08/02 05:58:37;;;;;;;7.63;2.13;;;;;;;;;;4957632;28;20379;-37
2022/08/02 06:01:13;;;;;;;13.40;2.53;;;;;;;;;;4961219;28;20205;-37
2022/08/02 06:03:44;;;;;;;11.77;2.40;;;;;;;;;;4957134;28;20185;-37
2022/08/02 06:06:16;;;;;;;5.70;2.10;;;;;;;;;;4957580;28;20804;-37
2022/08/02 06:08:47;;;;;;;9.87;2.20;;;;;;;;;;4985510;28;20505;-37
2022/08/02 06:11:14;;;;;;;9.00;2.13;;;;;;;;;;4955658;28;20178;-36
2022/08/02 06:13:41;;;;;;;6.60;2.03;;;;;;;;;;4956721;28;20194;-37
2022/08/02 06:16:07;;;;;;;8.37;2.27;;;;;;;;;;4958257;28;20819;-37
2022/08/02 06:18:33;;;;;;;11.03;2.30;;;;;;;;;;4952502;28;20568;-36
2022/08/02 06:21:02;;;;;;;9.00;2.13;;;;;;;;;;4958081;28;20727;-34
2022/08/02 06:23:28;;;;;;;10.00;2.37;;;;;;;;;;4956494;28;20185;-33
2022/08/02 06:25:56;;;;;;;7.37;2.10;;;;;;;;;;4957426;28;20182;-33
2022/08/02 06:28:22;;;;;;;7.40;2.13;;;;;;;;;;4957587;28;20178;-32
2022/08/02 06:30:48;;;;;;;6.70;1.97;;;;;;;;;;4952007;28;20925;-33
2022/08/02 06:33:14;;;;;;;7.53;2.13;;;;;;;;;;4951784;28;20515;-33
2022/08/02 06:35:50;;;;;;;3.57;1.70;;;;;;;;;;4985685;28;20182;-33
2022/08/02 06:38:22;;;;;;;6.70;2.03;;;;;;;;;;4953498;28;20719;-33
2022/08/02 06:40:55;;;;;;;3.30;1.80;;;;;;;;;;4952194;28;20544;-33
2022/08/02 06:43:26;;;;;;;4.50;1.90;;;;;;;;;;4956078;28;20285;-34
2022/08/02 06:45:53;;;;;;;4.67;1.80;;;;;;;;;;4951840;28;20311;-34
2022/08/02 06:48:19;;;;;;;8.67;1.73;;;;;;;;;;4950364;28;20527;-34
2022/08/02 06:50:45;;;;;;;4.13;1.60;;;;;;;;;;4953905;28;20703;-34
2022/08/02 06:53:11;;;;;;;7.90;2.23;;;;;;;;;;4952535;28;20396;-34
2022/08/02 06:55:37;;;;;;;5.10;1.93;;;;;;;;;;4953768;28;20187;-34
2022/08/02 06:58:03;;;;;;;5.83;1.60;;;;;;;;;;4953993;28;20727;-35
2022/08/02 07:00:30;;;;;;;5.37;1.53;;;;;;;;;;4954240;28;20202;-35
2022/08/02 07:02:57;;;;;;;4.73;1.80;;;;;;;;;;4982275;28;20205;-35
2022/08/02 07:05:23;;;;;;;6.50;1.60;;;;;;;;;;4952276;28;20300;-35
2022/08/02 07:07:49;;;;;;;2.20;1.53;;;;;;;;;;4964077;28;20182;-35
2022/08/02 07:10:15;;;;;;;9.30;2.40;;;;;;;;;;4953682;28;20185;-35
2022/08/02 07:12:41;;;;;;;8.73;1.83;;;;;;;;;;4953344;28;20298;-35
2022/08/02 07:15:09;;;;;;;4.73;1.70;;;;;;;;;;4954660;28;20174;-36
2022/08/02 07:17:35;;;;;;;5.03;1.67;;;;;;;;;;4954614;28;20281;-36
2022/08/02 07:20:02;;;;;;;4.70;1.50;;;;;;;;;;4951718;28;20331;-36
2022/08/02 07:22:28;;;;;;;10.57;2.17;;;;;;;;;;4951615;28;20178;-36
2022/08/02 07:24:55;;;;;;;5.03;1.90;;;;;;;;;;4951606;28;20647;-36
2022/08/02 07:27:22;;;;;;;6.77;1.53;;;;;;;;;;4954262;28;20760;-36
2022/08/02 07:29:48;;;;;;;4.60;1.57;;;;;;;;;;4954026;28;20181;-36
2022/08/02 07:32:18;;;;;;;3.73;1.33;;;;;;;;;;4956531;28;20637;-36
2022/08/02 07:34:45;;;;;;;3.60;1.40;;;;;;;;;;4953495;28;20213;-36
2022/08/02 07:37:11;;;;;;;3.97;1.30;;;;;;;;;;4951687;28;20635;-36
2022/08/02 07:39:37;;;;;;;3.07;1.40;;;;;;;;;;4954830;28;20205;-36
2022/08/02 07:42:03;;;;;;;4.07;1.53;;;;;;;;;;4951953;28;20214;-36
2022/08/02 07:44:33;;;;;;;2.70;1.37;;;;;;;;;;4951143;28;20170;-37
2022/08/02 07:47:00;;;;;;;4.97;1.40;;;;;;;;;;4954409;28;20186;-36
2022/08/02 07:49:26;;;;;;;5.73;1.50;;;;;;;;;;4952341;28;20955;-36
2022/08/02 07:51:52;;;;;;;4.50;1.30;;;;;;;;;;4951596;28;20193;-36
2022/08/02 07:54:19;;;;;;;4.67;1.53;;;;;;;;;;4953403;28;20189;-36
2022/08/02 07:56:45;;;;;;;4.77;1.33;;;;;;;;;;4953705;28;20244;-36
2022/08/02 07:59:11;;;;;;;6.80;1.53;;;;;;;;;;4979080;28;20607;-37
2022/08/02 08:01:37;;;;;;;5.40;1.80;;;;;;;;;;4952383;28;20955;-37
2022/08/02 08:04:04;;;;;;;3.13;1.83;;;;;;;;;;4953722;28;20182;-37
2022/08/02 08:06:30;;;;;;;3.70;1.63;;;;;;;;;;4955178;28;20192;-37
2022/08/02 08:08:57;;;;;;;4.90;1.90;;;;;;;;;;4950962;28;20177;-36
2022/08/02 08:11:23;;;;;;;4.83;2.10;;;;;;;;;;4952157;28;20170;-37
2022/08/02 08:13:49;;;;;;;4.10;1.60;;;;;;;;;;4955059;28;20392;-37
2022/08/02 08:16:16;;;;;;;3.53;1.67;;;;;;;;;;4951830;28;21150;-37
2022/08/02 08:18:42;;;;;;;2.50;1.70;;;;;;;;;;4950657;28;20182;-36
2022/08/02 08:21:08;;;;;;;2.17;1.30;;;;;;;;;;4953775;28;20463;-37
2022/08/02 08:23:35;;;;;;;7.17;1.77;;;;;;;;;;4952178;28;20587;-37
2022/08/02 08:26:01;;;;;;;4.73;1.80;;;;;;;;;;4951031;28;20199;-37
2022/08/02 08:28:27;;;;;;;3.90;1.57;;;;;;;;;;4950419;28;20697;-37
2022/08/02 08:30:53;;;;;;;3.30;1.63;;;;;;;;;;4953382;28;20189;-37
2022/08/02 08:33:20;;;;;;;3.77;1.50;;;;;;;;;;4955302;28;20190;-37
2022/08/02 08:35:46;;;;;;;3.77;1.70;;;;;;;;;;4949614;28;20182;-37
2022/08/02 08:38:12;;;;;;;6.93;1.70;;;;;;;;;;4953021;28;20840;-37
2022/08/02 08:40:40;;;;;;;3.50;1.60;;;;;;;;;;4950194;28;20828;-37
2022/08/02 08:43:07;;;;;;;5.20;1.70;;;;;;;;;;4950073;28;20600;-37
2022/08/02 08:45:33;;;;;;;1.40;1.30;;;;;;;;;;4951915;28;20185;-37
2022/08/02 08:48:07;;;;;;;2.60;1.07;;;;;;;;;;4952858;28;20529;-37
2022/08/02 08:50:35;;;;;;;3.50;1.40;;;;;;;;;;4950866;28;20866;-37
2022/08/02 08:53:04;;;;;;;2.83;1.47;;;;;;;;;;4952787;28;20185;-37
2022/08/02 08:55:31;;;;;;;4.47;1.63;;;;;;;;;;4954646;28;20643;-37
2022/08/02 08:58:01;;;;;;;2.60;1.60;;;;;;;;;;4954354;28;20213;-37
2022/08/02 09:00:29;;;;;;;4.80;1.63;;;;;;;;;;4949617;28;20272;-37
2022/08/02 09:02:55;;;;;;;4.03;1.70;;;;;;;;;;4951967;28;20189;-37
2022/08/02 09:05:21;;;;;;;6.23;1.63;;;;;;;;;;4952036;28;20178;-37
2022/08/02 09:07:48;;;;;;;2.27;1.20;;;;;;;;;;4971937;28;20759;-37
2022/08/02 09:10:33;;;;;;;3.10;1.47;;;;;;;;;;4960994;28;20615;-37
2022/08/02 09:13:10;;;;;;;3.23;1.23;;;;;;;;;;4953526;28;20201;-35
2022/08/02 09:15:40;;;;;;;2.77;1.30;;;;;;;;;;4952304;28;20235;-35
2022/08/02 09:18:07;;;;;;;2.27;1.20;;;;;;;;;;4951256;28;20214;-36
2022/08/02 09:20:33;;;;;;;3.07;1.30;;;;;;;;;;4955547;28;20822;-35
2022/08/02 09:23:10;;;;;;;4.37;1.43;;;;;;;;;;4951988;28;20182;-36
2022/08/02 09:25:37;;;;;;;6.93;1.20;;;;;;;;;;4953719;28;20178;-36
2022/08/02 09:28:06;;;;;;;4.77;1.30;;;;;;;;;;4953381;28;20175;-36
2022/08/02 09:30:32;;;;;;;1.63;1.10;;;;;;;;;;4953015;28;20486;-35
2022/08/02 09:32:59;;;;;;;4.33;1.33;;;;;;;;;;4950052;28;20228;-36
2022/08/02 09:35:51;;;;;;;2.57;1.13;;;;;;;;;;4952192;28;20191;-36
2022/08/02 09:38:17;;;;;;;2.70;1.20;;;;;;;;;;4949742;28;20312;-36
2022/08/02 09:40:43;;;;;;;5.13;1.30;;;;;;;;;;4950782;28;20502;-36
2022/08/02 09:43:09;;;;;;;2.40;1.43;;;;;;;;;;4950685;28;20170;-36
2022/08/02 09:45:36;;;;;;;6.00;1.30;;;;;;;;;;4954798;28;20214;-37
2022/08/02 09:48:11;;;;;;;4.97;1.60;;;;;;;;;;4948426;28;20178;-36
2022/08/02 09:50:38;;;;;;;1.93;1.30;;;;;;;;;;4951838;28;20297;-36
2022/08/02 09:53:11;;;;;;;5.97;1.50;;;;;;;;;;4955903;28;20188;-36
2022/08/02 09:55:37;;;;;;;1.30;1.20;;;;;;;;;;4958438;28;20514;-36
2022/08/02 09:58:17;;;;;;;3.60;1.70;;;;;;;;;;4953773;28;20997;-36
2022/08/02 10:00:57;;;;;;;2.93;1.33;;;;;;;;;;4953919;28;20454;-36
2022/08/02 10:03:23;;;;;;;3.93;1.20;;;;;;;;;;4954760;28;20932;-35
2022/08/02 10:05:49;;;;;;;3.10;1.33;;;;;;;;;;4954100;28;20186;-36
2022/08/02 10:08:16;;;;;;;5.03;1.30;;;;;;;;;;4952061;28;20975;-36
2022/08/02 10:10:42;;;;;;;2.93;1.20;;;;;;;;;;4953574;28;20196;-36
2022/08/02 10:13:09;;;;;;;1.07;0.97;;;;;;;;;;4954269;28;20220;-36
2022/08/02 10:15:36;;;;;;;2.70;1.00;;;;;;;;;;4955115;28;20249;-35
2022/08/02 10:18:03;;;;;;;2.10;1.10;;;;;;;;;;4954574;28;20275;-36
2022/08/02 10:20:30;;;;;;;2.17;1.30;;;;;;;;;;4955685;28;20234;-36
2022/08/02 10:22:57;;;;;;;2.23;0.90;;;;;;;;;;4954509;28;20178;-36
2022/08/02 10:25:23;;;;;;;2.60;1.00;;;;;;;;;;4952298;28;20178;-36
2022/08/02 10:27:50;;;;;;;4.27;1.27;;;;;;;;;;4954750;28;20662;-36
2022/08/02 10:30:16;;;;;;;2.13;1.07;;;;;;;;;;4953607;28;20252;-35
2022/08/02 10:32:44;;;;;;;3.57;1.43;;;;;;;;;;4955432;28;20177;-36
2022/08/02 10:35:13;;;;;;;1.10;0.93;;;;;;;;;;4956134;28;20182;-36
2022/08/02 10:37:40;;;;;;;1.13;0.90;;;;;;;;;;4955769;28;20194;-36
2022/08/02 10:40:21;;;;;;;5.93;1.17;;;;;;;;;;4954459;28;20197;-36
2022/08/02 10:42:52;;;;;;;1.40;1.07;;;;;;;;;;4955866;28;20330;-36
2022/08/02 10:45:20;;;;;;;1.50;1.00;;;;;;;;;;4951889;28;20186;-36
2022/08/02 10:48:06;;;;;;;1.60;1.00;;;;;;;;;;4952954;28;20211;-36
2022/08/02 10:50:45;;;;;;;1.63;1.10;;;;;;;;;;4949297;28;20196;-35
2022/08/02 10:53:27;;;;;;;1.20;1.10;;;;;;;;;;4950579;28;20183;-36
2022/08/02 10:55:54;;;;;;;0.90;0.90;;;;;;;;;;4955548;28;20181;-36
2022/08/02 10:58:21;;;;;;;1.70;1.07;;;;;;;;;;4953676;28;20210;-36
2022/08/02 11:00:48;;;;;;;1.10;0.90;;;;;;;;;;4951622;28;20677;-37
2022/08/02 11:03:43;;;;;;;0.90;0.90;;;;;;;;;;4952379;28;20738;-36
2022/08/02 11:06:13;;;;;;;2.47;1.07;;;;;;;;;;4953637;28;20199;-36
2022/08/02 11:08:40;;;;;;;2.57;1.03;;;;;;;;;;4951909;28;20752;-36
2022/08/02 11:11:09;;;;;;;1.83;1.00;;;;;;;;;;4951805;28;20341;-36
2022/08/02 11:14:01;;;;;;;0.63;0.63;;;;;;;;;;4955775;28;20186;-35
2022/08/02 11:16:46;;;;;;;1.60;0.90;;;;;;;;;;4953144;28;20198;-36
2022/08/02 11:19:12;;;;;;;3.73;0.93;;;;;;;;;;4950862;28;20189;-36
2022/08/02 11:21:38;;;;;;;2.17;0.80;;;;;;;;;;4952362;28;20281;-36
2022/08/02 11:24:25;;;;;;;2.13;0.90;;;;;;;;;;4951737;28;20204;-36
2022/08/02 11:26:51;;;;;;;1.90;0.70;;;;;;;;;;4950297;28;20411;-36
2022/08/02 11:29:18;;;;;;;3.00;0.70;;;;;;;;;;4949576;28;20284;-36
2022/08/02 11:31:45;;;;;;;1.07;0.80;;;;;;;;;;4951746;28;20722;-36
2022/08/02 11:34:11;;;;;;;1.67;0.60;;;;;;;;;;4954502;28;20287;-35
2022/08/02 11:36:48;;;;;;;0.90;0.80;;;;;;;;;;4951363;28;20426;-36
2022/08/02 11:39:15;;;;;;;1.23;0.87;;;;;;;;;;4953581;28;20186;-35
2022/08/02 11:41:42;;;;;;;2.53;0.87;;;;;;;;;;4953801;28;20943;-36
2022/08/02 11:44:08;;;;;;;1.93;1.07;;;;;;;;;;4950842;28;20178;-36
2022/08/02 11:46:34;;;;;;;2.23;1.17;;;;;;;;;;4949957;28;20612;-36
2022/08/02 11:49:18;;;;;;;2.27;0.93;;;;;;;;;;4954562;28;20183;-36
2022/08/02 11:51:52;;;;;;;1.77;1.10;;;;;;;;;;4952427;28;20201;-36
2022/08/02 11:54:25;;;;;;;1.03;0.90;;;;;;;;;;4949246;28;20214;-36
2022/08/02 11:56:57;;;;;;;1.00;0.90;;;;;;;;;;4951637;28;20645;-36
2022/08/02 11:59:23;;;;;;;1.77;1.20;;;;;;;;;;4955003;28;20252;-37
2022/08/02 12:01:49;;;;;;;2.10;1.20;;;;;;;;;;4951494;28;20170;-36
2022/08/02 12:04:16;;;;;;;1.20;1.10;;;;;;;;;;4954781;28;20206;-36
2022/08/02 12:06:43;;;;;;;7.40;1.23;;;;;;;;;;4951923;28;20665;-36
2022/08/02 12:09:11;;;;;;;1.60;1.00;;;;;;;;;;4950149;28;20967;-36
2022/08/02 12:11:38;;;;;;;1.33;1.00;;;;;;;;;;4952174;28;20178;-36
2022/08/02 12:14:04;;;;;;;2.27;1.20;;;;;;;;;;4954863;28;20500;-36
2022/08/02 12:19:26;;;;;;;2.33;0.93;;;;;;;;;;4955700;28;20241;-36
2022/08/02 12:22:12;;;;;;;2.00;1.03;;;;;;;;;;4956258;28;20175;-37
2022/08/02 12:24:39;;;;;;;3.07;1.00;;;;;;;;;;4954227;28;20567;-37
2022/08/02 12:27:05;;;;;;;2.23;1.13;;;;;;;;;;4958678;28;20174;-37
2022/08/02 12:29:35;;;;;;;4.17;1.30;;;;;;;;;;4956599;28;20334;-37
2022/08/02 12:32:03;;;;;;;1.20;1.10;;;;;;;;;;4954007;28;20289;-37
2022/08/02 12:34:29;;;;;;;2.33;1.20;;;;;;;;;;4956936;28;21040;-36
2022/08/02 12:37:04;;;;;;;3.17;1.50;;;;;;;;;;4958260;28;20303;-37
2022/08/02 12:39:33;;;;;;;1.50;1.10;;;;;;;;;;4955670;28;20197;-36
2022/08/02 12:42:01;;;;;;;1.80;1.20;;;;;;;;;;4953101;28;20188;-37
2022/08/02 12:44:27;;;;;;;1.87;1.37;;;;;;;;;;4958049;28;20190;-37
2022/08/02 12:47:06;;;;;;;2.37;1.40;;;;;;;;;;4954563;28;20179;-37
2022/08/02 12:49:33;;;;;;;1.60;1.30;;;;;;;;;;4955200;28;20299;-37
2022/08/02 12:51:59;;;;;;;1.63;1.10;;;;;;;;;;4958488;28;20183;-37
2022/08/02 12:54:31;;;;;;;3.77;1.40;;;;;;;;;;4954023;28;20192;-37
2022/08/02 12:56:57;;;;;;;3.47;1.40;;;;;;;;;;4955735;28;20186;-37
2022/08/02 12:59:36;;;;;;;2.03;1.40;;;;;;;;;;4955689;28;20190;-37
2022/08/02 13:02:04;;;;;;;2.70;1.27;;;;;;;;;;4954956;28;20910;-37
2022/08/02 13:04:30;;;;;;;3.10;1.30;;;;;;;;;;4954142;28;20177;-37
2022/08/02 13:06:56;;;;;;;4.17;1.37;;;;;;;;;;4957080;28;20172;-37
2022/08/02 13:09:22;;;;;;;2.50;1.20;;;;;;;;;;4955816;28;21112;-37
2022/08/02 13:11:49;;;;;;;2.20;1.20;;;;;;;;;;4953562;28;20335;-37
2022/08/02 13:14:15;;;;;;;2.10;1.20;;;;;;;;;;4955959;28;20655;-37
2022/08/02 13:16:42;;;;;;;2.63;1.20;;;;;;;;;;4952575;28;20594;-37
2022/08/02 13:19:08;;;;;;;1.40;1.10;;;;;;;;;;4948287;28;20528;-37
2022/08/02 13:21:34;;;;;;;3.40;1.20;;;;;;;;;;4956822;28;21195;-36
2022/08/02 13:24:00;;;;;;;3.70;1.23;;;;;;;;;;4961343;28;20669;-37
2022/08/02 13:26:28;;;;;;;1.53;1.20;;;;;;;;;;4956182;28;20472;-37
2022/08/02 13:28:54;;;;;;;2.27;1.10;;;;;;;;;;4954812;28;20664;-37
2022/08/02 13:31:20;;;;;;;1.10;1.00;;;;;;;;;;4962406;28;20498;-36
2022/08/02 13:33:46;;;;;;;4.50;1.30;;;;;;;;;;4957969;28;20174;-37
2022/08/02 13:36:12;;;;;;;1.43;1.10;;;;;;;;;;4958638;28;21379;-37
2022/08/02 13:38:38;;;;;;;3.73;1.30;;;;;;;;;;4958284;28;20435;-39
2022/08/02 13:41:07;;;;;;;3.67;1.53;;;;;;;;;;4958307;28;20779;-37
2022/08/02 13:43:33;;;;;;;1.70;1.43;;;;;;;;;;4957666;28;20860;-37
2022/08/02 13:46:00;;;;;;;3.40;1.43;;;;;;;;;;4958508;28;20187;-37
2022/08/02 13:48:27;;;;;;;3.20;1.50;;;;;;;;;;4956266;28;20183;-37
2022/08/02 13:51:13;;;;;;;1.53;1.30;;;;;;;;;;4954869;28;20176;-37
2022/08/02 13:53:39;;;;;;;2.63;1.20;;;;;;;;;;4956377;28;20174;-38
2022/08/02 13:56:06;;;;;;;1.83;1.40;;;;;;;;;;4953837;28;20391;-36
2022/08/02 13:58:32;;;;;;;4.50;1.20;;;;;;;;;;4953293;28;20757;-38
2022/08/02 14:00:58;;;;;;;1.20;1.10;;;;;;;;;;4959046;28;20199;-37
2022/08/02 14:03:25;;;;;;;3.97;1.20;;;;;;;;;;4957293;28;20325;-37
2022/08/02 14:05:51;;;;;;;0.93;0.93;;;;;;;;;;4956882;28;20248;-37
2022/08/02 14:08:17;;;;;;;4.13;1.13;;;;;;;;;;4954826;28;20178;-37
2022/08/02 14:10:44;;;;;;;1.73;0.90;;;;;;;;;;4955283;28;20285;-38
2022/08/02 14:13:10;;;;;;;3.33;1.00;;;;;;;;;;4954055;28;20258;-37
2022/08/02 14:15:36;;;;;;;2.73;0.90;;;;;;;;;;4957565;28;20183;-37
2022/08/02 14:18:02;;;;;;;1.43;0.87;;;;;;;;;;4957528;28;20193;-37
2022/08/02 14:20:28;;;;;;;3.93;1.00;;;;;;;;;;4956009;28;20204;-37
2022/08/02 14:22:54;;;;;;;2.37;1.00;;;;;;;;;;4985213;28;20738;-37
2022/08/02 14:25:20;;;;;;;3.00;1.20;;;;;;;;;;4956641;28;20719;-37
2022/08/02 14:27:46;;;;;;;2.30;1.00;;;;;;;;;;4954884;28;20656;-37
2022/08/02 14:30:12;;;;;;;3.17;1.00;;;;;;;;;;4954435;28;20659;-37
2022/08/02 14:32:39;;;;;;;1.33;1.00;;;;;;;;;;4959706;28;20487;-36
2022/08/02 14:35:06;;;;;;;2.37;1.00;;;;;;;;;;4956115;28;20400;-37
2022/08/02 14:37:32;;;;;;;1.70;1.00;;;;;;;;;;4960597;28;20187;-37
2022/08/02 14:39:59;;;;;;;2.40;1.20;;;;;;;;;;4960728;28;20210;-37
2022/08/02 14:42:25;;;;;;;1.83;1.10;;;;;;;;;;4955404;28;20861;-37
2022/08/02 14:44:51;;;;;;;3.07;1.10;;;;;;;;;;4956915;28;20281;-37
2022/08/02 14:47:17;;;;;;;2.70;1.40;;;;;;;;;;4957987;28;20202;-38
2022/08/02 14:49:43;;;;;;;1.43;1.10;;;;;;;;;;4956784;28;20192;-37
2022/08/02 14:52:11;;;;;;;1.10;1.00;;;;;;;;;;4970751;28;20180;-37